sensor_id;sensor_type;location;lat;lon;timestamp;P1;durP1;ratioP1;P2;durP2;ratioP2
2199;SDS011;1106;48.762;9.168;2022-10-03T00:01:02;12.20;;;11.50;;
2199;SDS011;1106;48.762;9.168;2022-10-03T00:03:40;13.27;;;12.47;;
2199;SDS011;1106;48.762;9.168;2022-10-03T00:06:23;12.70;;;11.80;;
2199;SDS011;1106;48.762;9.168;2022-10-03T00:09:02;13.90;;;13.10;;
2199;SDS011;1106;48.762;9.168;2022-10-03T00:11:54;13.10;;;12.40;;
2199;SDS011;1106;48.762;9.168;2022-10-03T00:14:31;13.30;;;12.60;;
2199;SDS011;1106;48.762;9.168;2022-10-03T00:17:06;13.07;;;12.27;;
2199;SDS011;1106;48.762;9.168;2022-10-03T00:19:41;13.43;;;12.73;;
2199;SDS011;1106;48.762;9.168;2022-10-03T00:22:19;14.30;;;13.37;;
2199;SDS011;1106;48.762;9.168;2022-10-03T00:24:56;14.20;;;13.30;;
2199;SDS011;1106;48.762;9.168;2022-10-03T00:27:33;13.97;;;13.10;;
2199;SDS011;1106;48.762;9.168;2022-10-03T00:30:11;13.53;;;12.83;;
2199;SDS011;1106;48.762;9.168;2022-10-03T00:32:51;13.20;;;12.60;;
2199;SDS011;1106;48.762;9.168;2022-10-03T00:35:33;13.90;;;13.10;;
2199;SDS011;1106;48.762;9.168;2022-10-03T00:38:15;14.17;;;13.20;;
2199;SDS011;1106;48.762;9.168;2022-10-03T00:47:56;13.30;;;12.60;;
2199;SDS011;1106;48.762;9.168;2022-10-03T00:50:55;13.70;;;13.00;;
2199;SDS011;1106;48.762;9.168;2022-10-03T00:53:46;14.00;;;13.00;;
2199;SDS011;1106;48.762;9.168;2022-10-03T00:56:33;14.13;;;13.20;;
2199;SDS011;1106;48.762;9.168;2022-10-03T00:59:23;14.13;;;13.23;;
2199;SDS011;1106;48.762;9.168;2022-10-03T01:02:14;14.10;;;13.30;;
2199;SDS011;1106;48.762;9.168;2022-10-03T01:04:52;13.23;;;12.50;;
2199;SDS011;1106;48.762;9.168;2022-10-03T01:07:38;13.37;;;12.67;;
2199;SDS011;1106;48.762;9.168;2022-10-03T01:10:21;14.80;;;13.67;;
2199;SDS011;1106;48.762;9.168;2022-10-03T01:15:47;14.43;;;13.60;;
2199;SDS011;1106;48.762;9.168;2022-10-03T01:18:23;14.23;;;13.43;;
2199;SDS011;1106;48.762;9.168;2022-10-03T01:21:00;14.90;;;14.10;;
2199;SDS011;1106;48.762;9.168;2022-10-03T01:23:37;15.43;;;14.33;;
2199;SDS011;1106;48.762;9.168;2022-10-03T01:26:39;14.87;;;14.03;;
2199;SDS011;1106;48.762;9.168;2022-10-03T01:29:20;14.60;;;13.50;;
2199;SDS011;1106;48.762;9.168;2022-10-03T01:32:09;15.90;;;14.90;;
2199;SDS011;1106;48.762;9.168;2022-10-03T01:34:45;15.03;;;14.03;;
2199;SDS011;1106;48.762;9.168;2022-10-03T01:37:21;14.60;;;13.63;;
2199;SDS011;1106;48.762;9.168;2022-10-03T01:39:55;15.00;;;14.10;;
2199;SDS011;1106;48.762;9.168;2022-10-03T01:42:32;14.20;;;13.50;;
2199;SDS011;1106;48.762;9.168;2022-10-03T01:45:11;13.63;;;12.83;;
2199;SDS011;1106;48.762;9.168;2022-10-03T01:47:51;14.93;;;13.93;;
2199;SDS011;1106;48.762;9.168;2022-10-03T01:50:27;14.20;;;13.10;;
2199;SDS011;1106;48.762;9.168;2022-10-03T01:53:02;14.20;;;13.40;;
2199;SDS011;1106;48.762;9.168;2022-10-03T01:55:35;14.90;;;13.90;;
2199;SDS011;1106;48.762;9.168;2022-10-03T01:58:08;14.83;;;13.90;;
2199;SDS011;1106;48.762;9.168;2022-10-03T02:00:41;14.70;;;13.70;;
2199;SDS011;1106;48.762;9.168;2022-10-03T02:03:16;15.20;;;14.27;;
2199;SDS011;1106;48.762;9.168;2022-10-03T02:05:51;13.90;;;13.00;;
2199;SDS011;1106;48.762;9.168;2022-10-03T02:08:27;14.63;;;13.67;;
2199;SDS011;1106;48.762;9.168;2022-10-03T02:11:01;13.67;;;12.97;;
2199;SDS011;1106;48.762;9.168;2022-10-03T02:13:37;15.07;;;14.00;;
2199;SDS011;1106;48.762;9.168;2022-10-03T02:16:13;14.93;;;13.93;;
2199;SDS011;1106;48.762;9.168;2022-10-03T02:18:46;15.00;;;14.10;;
2199;SDS011;1106;48.762;9.168;2022-10-03T02:21:19;15.27;;;14.07;;
2199;SDS011;1106;48.762;9.168;2022-10-03T02:23:48;16.53;;;15.20;;
2199;SDS011;1106;48.762;9.168;2022-10-03T02:26:44;15.53;;;14.60;;
2199;SDS011;1106;48.762;9.168;2022-10-03T02:29:40;14.27;;;13.37;;
2199;SDS011;1106;48.762;9.168;2022-10-03T02:41:55;17.67;;;16.20;;
2199;SDS011;1106;48.762;9.168;2022-10-03T02:44:54;16.30;;;15.20;;
2199;SDS011;1106;48.762;9.168;2022-10-03T02:47:44;15.77;;;14.83;;
2199;SDS011;1106;48.762;9.168;2022-10-03T02:50:47;16.20;;;15.30;;
2199;SDS011;1106;48.762;9.168;2022-10-03T02:59:44;16.93;;;15.80;;
2199;SDS011;1106;48.762;9.168;2022-10-03T03:05:59;16.43;;;15.53;;
2199;SDS011;1106;48.762;9.168;2022-10-03T03:09:01;16.77;;;15.50;;
2199;SDS011;1106;48.762;9.168;2022-10-03T03:15:10;15.00;;;14.13;;
2199;SDS011;1106;48.762;9.168;2022-10-03T03:18:03;16.53;;;15.43;;
2199;SDS011;1106;48.762;9.168;2022-10-03T03:20:40;16.77;;;15.67;;
2199;SDS011;1106;48.762;9.168;2022-10-03T03:23:23;17.37;;;16.17;;
2199;SDS011;1106;48.762;9.168;2022-10-03T03:26:07;16.63;;;15.43;;
2199;SDS011;1106;48.762;9.168;2022-10-03T03:28:58;17.37;;;16.07;;
2199;SDS011;1106;48.762;9.168;2022-10-03T03:31:35;15.80;;;14.70;;
2199;SDS011;1106;48.762;9.168;2022-10-03T03:34:11;17.37;;;16.23;;
2199;SDS011;1106;48.762;9.168;2022-10-03T03:36:46;19.73;;;18.33;;
2199;SDS011;1106;48.762;9.168;2022-10-03T03:39:31;17.60;;;16.50;;
2199;SDS011;1106;48.762;9.168;2022-10-03T03:42:22;17.30;;;16.00;;
2199;SDS011;1106;48.762;9.168;2022-10-03T03:45:09;17.83;;;16.27;;
2199;SDS011;1106;48.762;9.168;2022-10-03T03:47:51;17.67;;;16.57;;
2199;SDS011;1106;48.762;9.168;2022-10-03T03:50:45;17.47;;;16.20;;
2199;SDS011;1106;48.762;9.168;2022-10-03T03:53:39;33.03;;;31.13;;
2199;SDS011;1106;48.762;9.168;2022-10-03T03:56:32;18.63;;;17.43;;
2199;SDS011;1106;48.762;9.168;2022-10-03T03:59:14;18.97;;;17.57;;
2199;SDS011;1106;48.762;9.168;2022-10-03T04:02:04;34.53;;;32.73;;
2199;SDS011;1106;48.762;9.168;2022-10-03T04:04:44;21.03;;;19.53;;
2199;SDS011;1106;48.762;9.168;2022-10-03T04:07:27;17.40;;;16.20;;
2199;SDS011;1106;48.762;9.168;2022-10-03T04:10:11;18.87;;;17.67;;
2199;SDS011;1106;48.762;9.168;2022-10-03T04:12:52;19.73;;;18.10;;
2199;SDS011;1106;48.762;9.168;2022-10-03T04:15:54;19.30;;;17.70;;
2199;SDS011;1106;48.762;9.168;2022-10-03T04:18:41;17.13;;;15.83;;
2199;SDS011;1106;48.762;9.168;2022-10-03T04:21:37;16.60;;;15.20;;
2199;SDS011;1106;48.762;9.168;2022-10-03T04:24:38;17.43;;;16.33;;
2199;SDS011;1106;48.762;9.168;2022-10-03T04:27:19;17.83;;;16.63;;
2199;SDS011;1106;48.762;9.168;2022-10-03T04:30:04;18.77;;;17.20;;
2199;SDS011;1106;48.762;9.168;2022-10-03T04:38:31;24.97;;;23.33;;
2199;SDS011;1106;48.762;9.168;2022-10-03T04:41:09;19.10;;;17.70;;
2199;SDS011;1106;48.762;9.168;2022-10-03T04:43:48;19.97;;;18.30;;
2199;SDS011;1106;48.762;9.168;2022-10-03T04:46:24;19.77;;;18.43;;
2199;SDS011;1106;48.762;9.168;2022-10-03T04:48:57;21.17;;;19.30;;
2199;SDS011;1106;48.762;9.168;2022-10-03T04:51:35;21.13;;;19.60;;
2199;SDS011;1106;48.762;9.168;2022-10-03T04:54:13;18.57;;;17.03;;
2199;SDS011;1106;48.762;9.168;2022-10-03T04:56:49;19.00;;;17.70;;
2199;SDS011;1106;48.762;9.168;2022-10-03T04:59:27;18.80;;;17.23;;
2199;SDS011;1106;48.762;9.168;2022-10-03T05:08:01;20.60;;;18.70;;
2199;SDS011;1106;48.762;9.168;2022-10-03T05:10:46;19.60;;;18.03;;
2199;SDS011;1106;48.762;9.168;2022-10-03T05:13:27;20.43;;;19.03;;
2199;SDS011;1106;48.762;9.168;2022-10-03T05:16:05;19.23;;;17.83;;
2199;SDS011;1106;48.762;9.168;2022-10-03T05:18:41;20.23;;;18.83;;
2199;SDS011;1106;48.762;9.168;2022-10-03T05:21:15;19.87;;;18.27;;
2199;SDS011;1106;48.762;9.168;2022-10-03T05:23:53;20.57;;;18.87;;
2199;SDS011;1106;48.762;9.168;2022-10-03T05:26:30;45.10;;;42.37;;
2199;SDS011;1106;48.762;9.168;2022-10-03T05:29:16;22.33;;;20.23;;
2199;SDS011;1106;48.762;9.168;2022-10-03T05:31:52;23.50;;;21.90;;
2199;SDS011;1106;48.762;9.168;2022-10-03T05:34:31;20.60;;;19.20;;
2199;SDS011;1106;48.762;9.168;2022-10-03T05:37:18;19.20;;;17.73;;
2199;SDS011;1106;48.762;9.168;2022-10-03T05:40:05;22.63;;;21.07;;
2199;SDS011;1106;48.762;9.168;2022-10-03T05:42:49;23.13;;;21.50;;
2199;SDS011;1106;48.762;9.168;2022-10-03T05:45:28;20.67;;;19.17;;
2199;SDS011;1106;48.762;9.168;2022-10-03T05:48:09;20.37;;;18.67;;
2199;SDS011;1106;48.762;9.168;2022-10-03T05:50:52;20.73;;;18.97;;
2199;SDS011;1106;48.762;9.168;2022-10-03T05:56:57;20.47;;;18.67;;
2199;SDS011;1106;48.762;9.168;2022-10-03T05:59:47;21.37;;;19.03;;
2199;SDS011;1106;48.762;9.168;2022-10-03T06:02:45;24.87;;;22.90;;
2199;SDS011;1106;48.762;9.168;2022-10-03T06:05:29;31.30;;;28.80;;
2199;SDS011;1106;48.762;9.168;2022-10-03T06:08:05;25.13;;;22.80;;
2199;SDS011;1106;48.762;9.168;2022-10-03T06:10:53;37.37;;;34.27;;
2199;SDS011;1106;48.762;9.168;2022-10-03T06:13:34;27.37;;;24.90;;
2199;SDS011;1106;48.762;9.168;2022-10-03T06:16:18;31.47;;;29.03;;
2199;SDS011;1106;48.762;9.168;2022-10-03T06:19:10;38.47;;;35.77;;
2199;SDS011;1106;48.762;9.168;2022-10-03T06:28:06;28.10;;;25.80;;
2199;SDS011;1106;48.762;9.168;2022-10-03T06:31:01;35.33;;;32.77;;
2199;SDS011;1106;48.762;9.168;2022-10-03T06:33:54;33.87;;;31.33;;
2199;SDS011;1106;48.762;9.168;2022-10-03T06:43:13;39.47;;;37.03;;
2199;SDS011;1106;48.762;9.168;2022-10-03T06:46:16;34.20;;;31.50;;
2199;SDS011;1106;48.762;9.168;2022-10-03T06:49:16;46.23;;;42.83;;
2199;SDS011;1106;48.762;9.168;2022-10-03T07:04:35;28.07;;;25.70;;
2199;SDS011;1106;48.762;9.168;2022-10-03T07:10:52;34.87;;;31.70;;
2199;SDS011;1106;48.762;9.168;2022-10-03T07:16:50;29.43;;;26.63;;
2199;SDS011;1106;48.762;9.168;2022-10-03T07:19:38;36.70;;;33.67;;
2199;SDS011;1106;48.762;9.168;2022-10-03T07:25:36;33.92;;;30.63;;
2199;SDS011;1106;48.762;9.168;2022-10-03T07:28:38;50.17;;;46.63;;
2199;SDS011;1106;48.762;9.168;2022-10-03T07:31:26;30.73;;;28.00;;
2199;SDS011;1106;48.762;9.168;2022-10-03T07:34:12;36.88;;;33.97;;
2199;SDS011;1106;48.762;9.168;2022-10-03T07:37:12;33.63;;;30.53;;
2199;SDS011;1106;48.762;9.168;2022-10-03T07:40:13;36.07;;;33.27;;
2199;SDS011;1106;48.762;9.168;2022-10-03T07:43:08;47.30;;;43.77;;
2199;SDS011;1106;48.762;9.168;2022-10-03T07:46:16;38.10;;;35.13;;
2199;SDS011;1106;48.762;9.168;2022-10-03T07:55:13;45.40;;;41.80;;
2199;SDS011;1106;48.762;9.168;2022-10-03T07:57:55;42.50;;;38.90;;
2199;SDS011;1106;48.762;9.168;2022-10-03T08:00:39;41.50;;;38.13;;
2199;SDS011;1106;48.762;9.168;2022-10-03T08:03:39;33.43;;;30.80;;
2199;SDS011;1106;48.762;9.168;2022-10-03T08:06:22;33.57;;;30.27;;
2199;SDS011;1106;48.762;9.168;2022-10-03T08:12:14;42.43;;;38.73;;
2199;SDS011;1106;48.762;9.168;2022-10-03T08:15:08;43.40;;;40.50;;
2199;SDS011;1106;48.762;9.168;2022-10-03T08:20:56;33.67;;;30.87;;
2199;SDS011;1106;48.762;9.168;2022-10-03T08:23:33;33.07;;;30.53;;
2199;SDS011;1106;48.762;9.168;2022-10-03T08:26:24;32.10;;;29.80;;
2199;SDS011;1106;48.762;9.168;2022-10-03T08:29:10;33.33;;;30.80;;
2199;SDS011;1106;48.762;9.168;2022-10-03T08:31:53;43.17;;;40.07;;
2199;SDS011;1106;48.762;9.168;2022-10-03T08:37:47;46.33;;;43.13;;
2199;SDS011;1106;48.762;9.168;2022-10-03T08:43:57;32.10;;;29.47;;
2199;SDS011;1106;48.762;9.168;2022-10-03T08:47:03;41.17;;;38.03;;
2199;SDS011;1106;48.762;9.168;2022-10-03T08:52:56;29.87;;;27.73;;
2199;SDS011;1106;48.762;9.168;2022-10-03T08:55:46;33.80;;;31.17;;
2199;SDS011;1106;48.762;9.168;2022-10-03T08:58:26;31.00;;;28.57;;
2199;SDS011;1106;48.762;9.168;2022-10-03T09:01:29;31.07;;;28.97;;
2199;SDS011;1106;48.762;9.168;2022-10-03T09:04:22;34.37;;;32.17;;
2199;SDS011;1106;48.762;9.168;2022-10-03T09:07:19;33.00;;;30.80;;
2199;SDS011;1106;48.762;9.168;2022-10-03T09:13:09;35.77;;;33.47;;
2199;SDS011;1106;48.762;9.168;2022-10-03T09:18:55;51.40;;;48.00;;
2199;SDS011;1106;48.762;9.168;2022-10-03T09:21:37;33.13;;;30.80;;
2199;SDS011;1106;48.762;9.168;2022-10-03T09:24:33;47.30;;;44.30;;
2199;SDS011;1106;48.762;9.168;2022-10-03T09:27:42;34.30;;;32.27;;
2199;SDS011;1106;48.762;9.168;2022-10-03T09:30:21;52.27;;;49.37;;
2199;SDS011;1106;48.762;9.168;2022-10-03T09:33:16;33.20;;;31.00;;
2199;SDS011;1106;48.762;9.168;2022-10-03T09:42:32;40.67;;;38.33;;
2199;SDS011;1106;48.762;9.168;2022-10-03T09:48:31;51.37;;;48.17;;
2199;SDS011;1106;48.762;9.168;2022-10-03T09:51:12;33.47;;;31.33;;
2199;SDS011;1106;48.762;9.168;2022-10-03T09:54:11;39.87;;;37.40;;
2199;SDS011;1106;48.762;9.168;2022-10-03T09:57:05;36.83;;;34.60;;
2199;SDS011;1106;48.762;9.168;2022-10-03T10:05:47;37.90;;;35.57;;
2199;SDS011;1106;48.762;9.168;2022-10-03T10:08:57;41.47;;;38.97;;
2199;SDS011;1106;48.762;9.168;2022-10-03T10:11:57;42.83;;;39.53;;
2199;SDS011;1106;48.762;9.168;2022-10-03T10:15:01;38.97;;;36.37;;
2199;SDS011;1106;48.762;9.168;2022-10-03T10:17:55;48.13;;;45.40;;
2199;SDS011;1106;48.762;9.168;2022-10-03T10:21:02;36.10;;;33.80;;
2199;SDS011;1106;48.762;9.168;2022-10-03T10:23:54;39.90;;;37.53;;
2199;SDS011;1106;48.762;9.168;2022-10-03T10:26:42;41.67;;;39.03;;
2199;SDS011;1106;48.762;9.168;2022-10-03T10:29:38;51.33;;;47.80;;
2199;SDS011;1106;48.762;9.168;2022-10-03T10:38:37;36.57;;;34.47;;
2199;SDS011;1106;48.762;9.168;2022-10-03T10:41:51;34.73;;;32.33;;
2199;SDS011;1106;48.762;9.168;2022-10-03T10:44:46;36.33;;;34.23;;
2199;SDS011;1106;48.762;9.168;2022-10-03T10:54:11;45.27;;;42.30;;
2199;SDS011;1106;48.762;9.168;2022-10-03T10:57:16;35.93;;;33.43;;
2199;SDS011;1106;48.762;9.168;2022-10-03T11:09:16;47.10;;;44.43;;
2199;SDS011;1106;48.762;9.168;2022-10-03T11:18:29;45.83;;;43.10;;
2199;SDS011;1106;48.762;9.168;2022-10-03T11:21:30;40.47;;;38.03;;
2199;SDS011;1106;48.762;9.168;2022-10-03T11:24:34;41.10;;;38.80;;
2199;SDS011;1106;48.762;9.168;2022-10-03T11:27:35;49.90;;;47.10;;
2199;SDS011;1106;48.762;9.168;2022-10-03T11:36:54;50.27;;;47.40;;
2199;SDS011;1106;48.762;9.168;2022-10-03T11:39:36;45.73;;;42.83;;
2199;SDS011;1106;48.762;9.168;2022-10-03T11:42:12;40.90;;;38.50;;
2199;SDS011;1106;48.762;9.168;2022-10-03T11:44:52;36.00;;;34.07;;
2199;SDS011;1106;48.762;9.168;2022-10-03T11:47:36;51.40;;;48.50;;
2199;SDS011;1106;48.762;9.168;2022-10-03T11:50:14;38.33;;;36.13;;
2199;SDS011;1106;48.762;9.168;2022-10-03T11:55:58;41.57;;;39.37;;
2199;SDS011;1106;48.762;9.168;2022-10-03T11:58:50;41.50;;;38.80;;
2199;SDS011;1106;48.762;9.168;2022-10-03T12:01:28;39.93;;;37.10;;
2199;SDS011;1106;48.762;9.168;2022-10-03T12:04:07;57.13;;;53.90;;
2199;SDS011;1106;48.762;9.168;2022-10-03T12:06:48;37.43;;;35.33;;
2199;SDS011;1106;48.762;9.168;2022-10-03T12:09:41;35.53;;;33.40;;
2199;SDS011;1106;48.762;9.168;2022-10-03T12:12:23;34.33;;;32.30;;
2199;SDS011;1106;48.762;9.168;2022-10-03T12:15:00;36.90;;;34.67;;
2199;SDS011;1106;48.762;9.168;2022-10-03T12:17:36;43.90;;;41.57;;
2199;SDS011;1106;48.762;9.168;2022-10-03T12:20:15;57.47;;;54.60;;
2199;SDS011;1106;48.762;9.168;2022-10-03T12:22:47;37.40;;;35.37;;
2199;SDS011;1106;48.762;9.168;2022-10-03T12:25:18;38.77;;;36.57;;
2199;SDS011;1106;48.762;9.168;2022-10-03T12:27:51;47.97;;;45.47;;
2199;SDS011;1106;48.762;9.168;2022-10-03T12:30:26;31.93;;;30.10;;
2199;SDS011;1106;48.762;9.168;2022-10-03T12:33:03;42.10;;;40.00;;
2199;SDS011;1106;48.762;9.168;2022-10-03T12:35:42;40.73;;;38.33;;
2199;SDS011;1106;48.762;9.168;2022-10-03T12:38:20;40.83;;;38.60;;
2199;SDS011;1106;48.762;9.168;2022-10-03T12:41:02;44.07;;;41.60;;
2199;SDS011;1106;48.762;9.168;2022-10-03T12:43:41;41.23;;;39.00;;
2199;SDS011;1106;48.762;9.168;2022-10-03T12:46:19;36.27;;;34.00;;
2199;SDS011;1106;48.762;9.168;2022-10-03T12:48:57;36.77;;;34.57;;
2199;SDS011;1106;48.762;9.168;2022-10-03T12:51:33;38.57;;;36.37;;
2199;SDS011;1106;48.762;9.168;2022-10-03T12:54:14;42.93;;;40.33;;
2199;SDS011;1106;48.762;9.168;2022-10-03T12:57:06;35.23;;;32.40;;
2199;SDS011;1106;48.762;9.168;2022-10-03T13:00:00;41.70;;;39.60;;
2199;SDS011;1106;48.762;9.168;2022-10-03T13:02:31;41.37;;;39.07;;
2199;SDS011;1106;48.762;9.168;2022-10-03T13:08:01;34.60;;;32.50;;
2199;SDS011;1106;48.762;9.168;2022-10-03T13:10:32;44.50;;;41.90;;
2199;SDS011;1106;48.762;9.168;2022-10-03T13:13:11;40.13;;;37.93;;
2199;SDS011;1106;48.762;9.168;2022-10-03T13:15:56;49.47;;;46.90;;
2199;SDS011;1106;48.762;9.168;2022-10-03T13:18:41;38.60;;;36.67;;
2199;SDS011;1106;48.762;9.168;2022-10-03T13:21:14;50.40;;;47.67;;
2199;SDS011;1106;48.762;9.168;2022-10-03T13:23:46;49.50;;;46.80;;
2199;SDS011;1106;48.762;9.168;2022-10-03T13:26:19;35.20;;;33.30;;
2199;SDS011;1106;48.762;9.168;2022-10-03T13:28:55;39.70;;;37.70;;
2199;SDS011;1106;48.762;9.168;2022-10-03T13:31:47;43.60;;;40.83;;
2199;SDS011;1106;48.762;9.168;2022-10-03T13:34:26;53.73;;;50.57;;
2199;SDS011;1106;48.762;9.168;2022-10-03T13:36:58;48.27;;;45.67;;
2199;SDS011;1106;48.762;9.168;2022-10-03T13:39:34;49.13;;;46.23;;
2199;SDS011;1106;48.762;9.168;2022-10-03T13:42:12;52.53;;;49.53;;
2199;SDS011;1106;48.762;9.168;2022-10-03T13:44:44;36.73;;;34.63;;
2199;SDS011;1106;48.762;9.168;2022-10-03T13:47:28;60.33;;;57.33;;
2199;SDS011;1106;48.762;9.168;2022-10-03T13:50:03;44.37;;;42.17;;
2199;SDS011;1106;48.762;9.168;2022-10-03T13:52:35;34.30;;;32.30;;
2199;SDS011;1106;48.762;9.168;2022-10-03T13:55:12;38.33;;;36.33;;
2199;SDS011;1106;48.762;9.168;2022-10-03T13:57:44;35.80;;;33.87;;
2199;SDS011;1106;48.762;9.168;2022-10-03T14:00:20;37.67;;;35.57;;
2199;SDS011;1106;48.762;9.168;2022-10-03T14:05:49;52.60;;;49.90;;
2199;SDS011;1106;48.762;9.168;2022-10-03T14:08:55;37.33;;;35.50;;
2199;SDS011;1106;48.762;9.168;2022-10-03T14:11:41;36.87;;;34.67;;
2199;SDS011;1106;48.762;9.168;2022-10-03T14:17:12;54.83;;;52.03;;
2199;SDS011;1106;48.762;9.168;2022-10-03T14:19:49;48.03;;;45.43;;
2199;SDS011;1106;48.762;9.168;2022-10-03T14:22:33;41.50;;;39.40;;
2199;SDS011;1106;48.762;9.168;2022-10-03T14:25:17;38.27;;;36.27;;
2199;SDS011;1106;48.762;9.168;2022-10-03T14:27:50;47.07;;;44.53;;
2199;SDS011;1106;48.762;9.168;2022-10-03T14:30:20;47.57;;;45.13;;
2199;SDS011;1106;48.762;9.168;2022-10-03T14:32:53;46.80;;;44.30;;
2199;SDS011;1106;48.762;9.168;2022-10-03T14:35:32;42.27;;;40.17;;
2199;SDS011;1106;48.762;9.168;2022-10-03T14:38:11;45.73;;;42.83;;
2199;SDS011;1106;48.762;9.168;2022-10-03T14:40:46;47.27;;;44.63;;
2199;SDS011;1106;48.762;9.168;2022-10-03T14:43:27;37.57;;;35.67;;
2199;SDS011;1106;48.762;9.168;2022-10-03T14:46:04;43.60;;;41.27;;
2199;SDS011;1106;48.762;9.168;2022-10-03T14:48:34;54.23;;;51.33;;
2199;SDS011;1106;48.762;9.168;2022-10-03T14:51:09;34.93;;;33.07;;
2199;SDS011;1106;48.762;9.168;2022-10-03T14:53:44;54.70;;;51.90;;
2199;SDS011;1106;48.762;9.168;2022-10-03T14:56:16;50.40;;;47.50;;
2199;SDS011;1106;48.762;9.168;2022-10-03T14:58:45;47.60;;;45.00;;
2199;SDS011;1106;48.762;9.168;2022-10-03T15:01:16;49.17;;;46.27;;
2199;SDS011;1106;48.762;9.168;2022-10-03T15:03:51;44.70;;;42.00;;
2199;SDS011;1106;48.762;9.168;2022-10-03T15:06:33;48.17;;;45.13;;
2199;SDS011;1106;48.762;9.168;2022-10-03T15:09:14;48.40;;;45.90;;
2199;SDS011;1106;48.762;9.168;2022-10-03T15:11:46;46.57;;;43.97;;
2199;SDS011;1106;48.762;9.168;2022-10-03T15:14:18;33.73;;;31.73;;
2199;SDS011;1106;48.762;9.168;2022-10-03T15:16:48;52.00;;;49.33;;
2199;SDS011;1106;48.762;9.168;2022-10-03T15:19:19;41.43;;;39.13;;
2199;SDS011;1106;48.762;9.168;2022-10-03T15:21:57;41.07;;;38.90;;
2199;SDS011;1106;48.762;9.168;2022-10-03T15:24:34;36.33;;;34.47;;
2199;SDS011;1106;48.762;9.168;2022-10-03T15:27:02;36.97;;;34.87;;
2199;SDS011;1106;48.762;9.168;2022-10-03T15:29:34;37.13;;;35.13;;
2199;SDS011;1106;48.762;9.168;2022-10-03T15:32:04;38.90;;;36.70;;
2199;SDS011;1106;48.762;9.168;2022-10-03T15:34:44;44.40;;;42.10;;
2199;SDS011;1106;48.762;9.168;2022-10-03T15:37:15;49.97;;;47.40;;
2199;SDS011;1106;48.762;9.168;2022-10-03T15:39:45;43.67;;;41.23;;
2199;SDS011;1106;48.762;9.168;2022-10-03T15:42:18;39.90;;;37.60;;
2199;SDS011;1106;48.762;9.168;2022-10-03T15:44:50;39.47;;;37.20;;
2199;SDS011;1106;48.762;9.168;2022-10-03T15:47:20;42.83;;;40.60;;
2199;SDS011;1106;48.762;9.168;2022-10-03T15:49:51;55.33;;;52.23;;
2199;SDS011;1106;48.762;9.168;2022-10-03T15:52:23;48.10;;;45.67;;
2199;SDS011;1106;48.762;9.168;2022-10-03T15:54:56;52.90;;;50.03;;
2199;SDS011;1106;48.762;9.168;2022-10-03T15:57:30;45.47;;;43.23;;
2199;SDS011;1106;48.762;9.168;2022-10-03T16:00:00;57.43;;;54.53;;
2199;SDS011;1106;48.762;9.168;2022-10-03T16:02:30;44.43;;;42.03;;
2199;SDS011;1106;48.762;9.168;2022-10-03T16:05:00;39.53;;;37.33;;
2199;SDS011;1106;48.762;9.168;2022-10-03T16:07:37;37.30;;;35.13;;
2199;SDS011;1106;48.762;9.168;2022-10-03T16:10:12;40.07;;;37.77;;
2199;SDS011;1106;48.762;9.168;2022-10-03T16:12:52;51.97;;;49.27;;
2199;SDS011;1106;48.762;9.168;2022-10-03T16:15:24;43.60;;;41.27;;
2199;SDS011;1106;48.762;9.168;2022-10-03T16:18:03;43.93;;;41.53;;
2199;SDS011;1106;48.762;9.168;2022-10-03T16:20:36;53.03;;;50.13;;
2199;SDS011;1106;48.762;9.168;2022-10-03T16:23:16;44.13;;;41.80;;
2199;SDS011;1106;48.762;9.168;2022-10-03T16:25:47;52.27;;;49.17;;
2199;SDS011;1106;48.762;9.168;2022-10-03T16:28:17;45.90;;;43.50;;
2199;SDS011;1106;48.762;9.168;2022-10-03T16:30:49;32.97;;;31.20;;
2199;SDS011;1106;48.762;9.168;2022-10-03T16:33:22;43.20;;;40.97;;
2199;SDS011;1106;48.762;9.168;2022-10-03T16:35:52;36.33;;;34.40;;
2199;SDS011;1106;48.762;9.168;2022-10-03T16:38:24;50.30;;;47.47;;
2199;SDS011;1106;48.762;9.168;2022-10-03T16:40:55;32.87;;;31.20;;
2199;SDS011;1106;48.762;9.168;2022-10-03T16:43:24;47.73;;;45.20;;
2199;SDS011;1106;48.762;9.168;2022-10-03T16:45:53;43.10;;;40.63;;
2199;SDS011;1106;48.762;9.168;2022-10-03T16:48:22;43.00;;;40.87;;
2199;SDS011;1106;48.762;9.168;2022-10-03T16:51:17;39.60;;;37.47;;
2199;SDS011;1106;48.762;9.168;2022-10-03T16:53:47;32.60;;;30.40;;
2199;SDS011;1106;48.762;9.168;2022-10-03T16:56:19;32.87;;;30.90;;
2199;SDS011;1106;48.762;9.168;2022-10-03T16:58:53;32.83;;;30.50;;
2199;SDS011;1106;48.762;9.168;2022-10-03T17:01:37;37.10;;;34.67;;
2199;SDS011;1106;48.762;9.168;2022-10-03T17:04:12;44.73;;;42.03;;
2199;SDS011;1106;48.762;9.168;2022-10-03T17:06:45;47.43;;;44.33;;
2199;SDS011;1106;48.762;9.168;2022-10-03T17:09:18;33.37;;;30.90;;
2199;SDS011;1106;48.762;9.168;2022-10-03T17:11:52;34.53;;;32.20;;
2199;SDS011;1106;48.762;9.168;2022-10-03T17:14:22;31.80;;;29.70;;
2199;SDS011;1106;48.762;9.168;2022-10-03T17:16:54;37.80;;;35.40;;
2199;SDS011;1106;48.762;9.168;2022-10-03T17:19:29;30.80;;;28.90;;
2199;SDS011;1106;48.762;9.168;2022-10-03T17:22:04;29.80;;;28.10;;
2199;SDS011;1106;48.762;9.168;2022-10-03T17:24:42;27.77;;;26.07;;
2199;SDS011;1106;48.762;9.168;2022-10-03T17:27:14;32.40;;;30.40;;
2199;SDS011;1106;48.762;9.168;2022-10-03T17:29:48;29.40;;;27.40;;
2199;SDS011;1106;48.762;9.168;2022-10-03T17:32:22;45.43;;;43.03;;
2199;SDS011;1106;48.762;9.168;2022-10-03T17:34:56;28.33;;;26.53;;
2199;SDS011;1106;48.762;9.168;2022-10-03T17:37:43;28.53;;;27.00;;
2199;SDS011;1106;48.762;9.168;2022-10-03T17:40:31;39.63;;;37.33;;
2199;SDS011;1106;48.762;9.168;2022-10-03T17:43:23;32.50;;;30.30;;
2199;SDS011;1106;48.762;9.168;2022-10-03T17:46:02;28.43;;;26.67;;
2199;SDS011;1106;48.762;9.168;2022-10-03T17:48:37;35.90;;;33.90;;
2199;SDS011;1106;48.762;9.168;2022-10-03T17:51:26;26.53;;;24.83;;
2199;SDS011;1106;48.762;9.168;2022-10-03T17:53:57;25.43;;;23.90;;
2199;SDS011;1106;48.762;9.168;2022-10-03T17:56:29;26.57;;;24.47;;
2199;SDS011;1106;48.762;9.168;2022-10-03T17:58:59;37.10;;;34.40;;
2199;SDS011;1106;48.762;9.168;2022-10-03T18:01:32;28.57;;;26.37;;
2199;SDS011;1106;48.762;9.168;2022-10-03T18:04:02;27.10;;;25.23;;
2199;SDS011;1106;48.762;9.168;2022-10-03T18:06:43;25.27;;;23.77;;
2199;SDS011;1106;48.762;9.168;2022-10-03T18:09:23;23.70;;;22.33;;
2199;SDS011;1106;48.762;9.168;2022-10-03T18:11:57;36.10;;;33.87;;
2199;SDS011;1106;48.762;9.168;2022-10-03T18:14:34;32.50;;;30.50;;
2199;SDS011;1106;48.762;9.168;2022-10-03T18:17:13;24.67;;;22.80;;
2199;SDS011;1106;48.762;9.168;2022-10-03T18:19:48;26.17;;;24.37;;
2199;SDS011;1106;48.762;9.168;2022-10-03T18:22:22;29.30;;;27.50;;
2199;SDS011;1106;48.762;9.168;2022-10-03T18:24:55;25.83;;;23.67;;
2199;SDS011;1106;48.762;9.168;2022-10-03T18:27:56;35.60;;;33.60;;
2199;SDS011;1106;48.762;9.168;2022-10-03T18:30:33;32.03;;;30.03;;
2199;SDS011;1106;48.762;9.168;2022-10-03T18:33:09;31.40;;;29.67;;
2199;SDS011;1106;48.762;9.168;2022-10-03T18:35:39;24.23;;;22.63;;
2199;SDS011;1106;48.762;9.168;2022-10-03T18:38:10;22.70;;;21.20;;
2199;SDS011;1106;48.762;9.168;2022-10-03T18:40:41;23.70;;;21.90;;
2199;SDS011;1106;48.762;9.168;2022-10-03T18:43:27;24.87;;;22.70;;
2199;SDS011;1106;48.762;9.168;2022-10-03T18:46:02;26.20;;;24.80;;
2199;SDS011;1106;48.762;9.168;2022-10-03T18:48:38;25.70;;;23.97;;
2199;SDS011;1106;48.762;9.168;2022-10-03T18:51:12;22.67;;;21.10;;
2199;SDS011;1106;48.762;9.168;2022-10-03T18:53:45;23.80;;;21.67;;
2199;SDS011;1106;48.762;9.168;2022-10-03T18:56:18;22.83;;;20.90;;
2199;SDS011;1106;48.762;9.168;2022-10-03T18:58:56;22.37;;;20.60;;
2199;SDS011;1106;48.762;9.168;2022-10-03T19:01:38;21.43;;;20.07;;
2199;SDS011;1106;48.762;9.168;2022-10-03T19:04:17;21.43;;;20.03;;
2199;SDS011;1106;48.762;9.168;2022-10-03T19:06:57;22.23;;;20.33;;